createdAt,value
2019-01-03T00:00:28.159Z,5.87
2019-01-03T00:03:28.083Z,4.80
2019-01-03T00:06:27.771Z,5.27
2019-01-03T00:09:27.229Z,4.90
2019-01-03T00:12:31.226Z,5.50
2019-01-03T00:15:33.534Z,4.60
2019-01-03T00:18:33.293Z,5.30
2019-01-03T00:21:33.437Z,5.53
2019-01-03T00:24:33.379Z,5.97
2019-01-03T00:27:32.999Z,5.90
2019-01-03T00:30:33.292Z,4.77
2019-01-03T00:33:36.368Z,4.60
2019-01-03T00:36:35.910Z,5.10
2019-01-03T00:39:44.153Z,4.37
2019-01-03T00:45:52.922Z,3.87
2019-01-03T00:48:52.670Z,3.90
2019-01-03T00:51:55.415Z,4.00
2019-01-03T00:54:54.883Z,3.63
2019-01-03T00:57:53.465Z,3.93
2019-01-03T01:00:53.706Z,3.17
2019-01-03T01:03:53.544Z,3.40
2019-01-03T01:06:56.889Z,4.33
2019-01-03T01:09:57.226Z,3.80
2019-01-03T01:12:57.669Z,4.23
2019-01-03T01:19:05.091Z,4.30
2019-01-03T01:22:05.009Z,3.50
2019-01-03T01:25:08.452Z,3.47
2019-01-03T01:28:08.740Z,3.77
2019-01-03T01:31:08.850Z,3.70
2019-01-03T01:34:08.471Z,4.27
2019-01-03T01:37:15.934Z,4.77
2019-01-03T01:40:16.599Z,4.37
2019-01-03T01:43:16.274Z,4.33
2019-01-03T01:46:15.843Z,3.87
2019-01-03T01:49:16.010Z,3.50
2019-01-03T01:52:16.583Z,3.57
2019-01-03T01:55:22.201Z,3.10
2019-01-03T01:58:22.438Z,3.63
2019-01-03T02:01:22.309Z,4.27
2019-01-03T02:04:22.540Z,3.97
2019-01-03T02:10:34.469Z,4.20
2019-01-03T02:13:34.081Z,3.90
2019-01-03T02:19:42.043Z,3.70
2019-01-03T02:22:47.854Z,3.93
2019-01-03T02:25:47.576Z,4.27
2019-01-03T02:28:47.683Z,4.00
2019-01-03T02:31:47.566Z,4.87
2019-01-03T02:34:47.019Z,4.40
2019-01-03T02:37:47.098Z,4.40
2019-01-03T02:40:49.591Z,4.17
2019-01-03T02:43:50.082Z,3.43
2019-01-03T02:46:50.347Z,3.77
2019-01-03T02:49:50.564Z,3.97
2019-01-03T02:52:50.608Z,3.70
2019-01-03T02:55:51.197Z,3.70
2019-01-03T02:58:54.161Z,5.67
2019-01-03T03:01:48.716Z,4.27
2019-01-03T03:04:55.878Z,3.67
2019-01-03T03:07:56.280Z,3.33
2019-01-03T03:10:56.419Z,3.20
2019-01-03T03:14:04.255Z,3.40
2019-01-03T03:17:11.464Z,2.90
2019-01-03T03:20:11.201Z,3.17
2019-01-03T03:23:17.586Z,3.73
2019-01-03T03:26:23.233Z,3.57
2019-01-03T03:29:19.153Z,4.13
2019-01-03T03:32:19.387Z,3.67
2019-01-03T03:35:20.117Z,3.63
2019-01-03T03:38:23.151Z,3.00
2019-01-03T03:41:23.126Z,3.47
2019-01-03T03:44:22.897Z,3.40
2019-01-03T03:47:15.365Z,3.33
2019-01-03T03:50:21.198Z,3.33
2019-01-03T03:53:20.847Z,3.30
2019-01-03T03:56:21.008Z,3.07
2019-01-03T03:59:24.021Z,2.90
2019-01-03T04:02:24.206Z,3.00
2019-01-03T04:08:40.353Z,3.50
2019-01-03T04:11:41.054Z,3.33
2019-01-03T04:14:40.667Z,3.30
2019-01-03T04:17:45.283Z,3.80
2019-01-03T04:20:52.716Z,3.67
2019-01-03T04:26:59.702Z,4.87
2019-01-03T04:29:59.897Z,5.30
2019-01-03T04:32:59.741Z,5.33
2019-01-03T04:36:03.850Z,5.10
2019-01-03T04:39:03.461Z,3.70
2019-01-03T04:42:00.337Z,4.70
2019-01-03T04:44:55.261Z,4.13
2019-01-03T04:47:55.140Z,4.20
2019-01-03T04:54:13.483Z,3.73
2019-01-03T04:57:20.793Z,5.20
2019-01-03T05:00:20.410Z,5.00
2019-01-03T05:06:32.127Z,4.63
2019-01-03T05:16:01.575Z,4.33
2019-01-03T05:19:01.539Z,3.90
2019-01-03T05:22:01.993Z,4.97
2019-01-03T05:25:07.805Z,4.67
2019-01-03T05:28:07.655Z,5.43
2019-01-03T05:31:08.093Z,5.47
2019-01-03T05:34:10.836Z,5.50
2019-01-03T05:37:10.641Z,4.97
2019-01-03T05:40:15.250Z,5.97
2019-01-03T05:43:15.613Z,5.90
2019-01-03T05:46:15.753Z,5.30
2019-01-03T05:49:15.700Z,5.27
2019-01-03T05:55:28.573Z,4.00
2019-01-03T05:58:28.281Z,3.93
2019-01-03T06:01:27.995Z,4.80
2019-01-03T06:04:27.843Z,4.07
2019-01-03T06:10:49.284Z,2.90
2019-01-03T06:13:56.786Z,3.30
2019-01-03T06:16:56.504Z,2.77
2019-01-03T06:23:08.929Z,4.03
2019-01-03T06:26:09.255Z,3.30
2019-01-03T06:29:11.154Z,4.07
2019-01-03T06:32:11.784Z,3.90
2019-01-03T06:35:11.977Z,4.13
2019-01-03T06:38:12.024Z,3.70
2019-01-03T06:41:17.611Z,4.07
2019-01-03T06:44:17.068Z,3.60
2019-01-03T06:47:17.442Z,3.80
2019-01-03T06:50:17.944Z,3.20
2019-01-03T06:56:30.127Z,3.87
2019-01-03T06:59:29.507Z,3.90
2019-01-03T07:02:28.895Z,5.27
2019-01-03T07:05:29.078Z,5.00
2019-01-03T07:08:29.367Z,4.60
2019-01-03T07:11:29.600Z,4.80
2019-01-03T07:14:29.947Z,5.47
2019-01-03T07:17:29.926Z,5.37
2019-01-03T07:20:29.262Z,4.57
2019-01-03T07:23:30.396Z,5.00
2019-01-03T07:26:30.887Z,8.67
2019-01-03T07:29:30.735Z,7.67
2019-01-03T07:32:31.099Z,9.77
2019-01-03T07:35:31.702Z,42.33
2019-01-03T07:38:32.095Z,7.93
2019-01-03T07:41:35.396Z,21.97
2019-01-03T07:44:38.291Z,21.40
2019-01-03T07:47:38.261Z,7.27
2019-01-03T07:50:38.472Z,6.57
2019-01-03T08:00:04.319Z,5.47
2019-01-03T08:03:03.820Z,6.30
2019-01-03T08:06:09.142Z,7.30
2019-01-03T08:09:14.517Z,7.90
2019-01-03T08:12:14.995Z,7.40
2019-01-03T08:15:15.292Z,7.93
2019-01-03T08:18:15.492Z,7.13
2019-01-03T08:21:15.514Z,9.93
2019-01-03T08:24:16.206Z,9.17
2019-01-03T08:27:16.081Z,8.40
2019-01-03T08:33:37.021Z,7.73
2019-01-03T08:36:43.090Z,7.27
2019-01-03T08:39:48.766Z,7.50
2019-01-03T08:42:48.497Z,7.33
2019-01-03T08:45:46.912Z,7.47
2019-01-03T08:48:47.524Z,8.10
2019-01-03T08:51:47.111Z,9.47
2019-01-03T08:54:46.710Z,7.87
2019-01-03T08:57:54.161Z,7.67
2019-01-03T09:00:57.581Z,7.53
2019-01-03T09:03:57.746Z,7.40
2019-01-03T09:06:58.496Z,8.30
2019-01-03T09:09:58.439Z,7.97
2019-01-03T09:12:58.408Z,8.97
2019-01-03T09:16:01.187Z,9.53
2019-01-03T09:19:00.887Z,11.60
2019-01-03T09:22:00.419Z,11.87
2019-01-03T09:25:00.480Z,11.13
2019-01-03T09:28:00.345Z,10.37
2019-01-03T09:31:01.053Z,10.13
2019-01-03T09:34:01.320Z,8.90
2019-01-03T09:37:01.817Z,9.60
2019-01-03T09:40:02.109Z,14.33
2019-01-03T09:43:02.598Z,15.17
2019-01-03T09:45:44.470Z,9.70
2019-01-03T09:48:25.932Z,18.03
2019-01-03T09:51:06.583Z,11.37
2019-01-03T09:53:47.685Z,15.57
2019-01-03T09:56:29.226Z,11.33
2019-01-03T09:59:10.571Z,14.20
2019-01-03T10:01:52.115Z,11.17
2019-01-03T10:04:32.826Z,9.13
2019-01-03T10:07:14.238Z,8.60
2019-01-03T10:09:55.410Z,8.87
2019-01-03T10:12:36.155Z,9.53
2019-01-03T10:15:17.349Z,8.97
2019-01-03T10:17:58.814Z,9.90
2019-01-03T10:20:40.417Z,10.53
2019-01-03T10:23:22.241Z,9.17
2019-01-03T10:26:04.554Z,57.60
2019-01-03T10:28:45.566Z,11.13
2019-01-03T10:31:26.579Z,10.27
2019-01-03T10:34:08.079Z,12.43
2019-01-03T10:36:49.839Z,10.27
2019-01-03T10:39:31.171Z,10.93
2019-01-03T10:42:12.438Z,12.63
2019-01-03T10:44:54.227Z,17.87
2019-01-03T10:47:33.724Z,19.73
2019-01-03T10:50:14.556Z,15.57
2019-01-03T10:52:56.239Z,10.33
2019-01-03T10:55:37.532Z,9.43
2019-01-03T10:58:18.459Z,10.90
2019-01-03T11:00:59.597Z,8.53
2019-01-03T11:03:41.165Z,8.67
2019-01-03T11:06:21.894Z,8.50
2019-01-03T11:09:03.969Z,8.40
2019-01-03T11:11:45.638Z,8.47
2019-01-03T11:14:27.217Z,9.50
2019-01-03T11:17:09.171Z,5.93
2019-01-03T11:19:50.768Z,7.47
2019-01-03T11:22:32.279Z,9.33
2019-01-03T11:25:13.512Z,8.60
2019-01-03T11:27:54.342Z,7.73
2019-01-03T11:30:35.280Z,7.40
2019-01-03T11:33:16.830Z,7.70
2019-01-03T11:35:56.533Z,7.60
2019-01-03T11:38:38.101Z,6.33
2019-01-03T11:41:19.667Z,6.90
2019-01-03T11:44:01.068Z,9.10
2019-01-03T11:46:42.867Z,8.70
2019-01-03T11:49:24.235Z,10.17
2019-01-03T11:52:05.883Z,10.10
2019-01-03T11:54:47.259Z,11.17
2019-01-03T11:57:27.424Z,10.93
2019-01-03T12:00:08.731Z,10.90
2019-01-03T12:02:50.513Z,10.07
2019-01-03T12:05:31.808Z,11.83
2019-01-03T12:08:12.464Z,10.73
2019-01-03T12:10:53.304Z,8.67
2019-01-03T12:13:34.695Z,9.37
2019-01-03T12:16:15.303Z,8.83
2019-01-03T12:18:56.378Z,8.73
2019-01-03T12:21:37.239Z,9.13
2019-01-03T12:24:18.686Z,7.93
2019-01-03T12:26:59.859Z,7.23
2019-01-03T12:29:40.656Z,6.03
2019-01-03T12:32:21.959Z,6.67
2019-01-03T12:35:03.222Z,6.67
2019-01-03T12:37:44.323Z,8.53
2019-01-03T12:40:25.230Z,10.03
2019-01-03T12:43:06.838Z,8.27
2019-01-03T12:45:48.193Z,7.47
2019-01-03T12:48:29.076Z,9.00
2019-01-03T12:51:09.588Z,9.70
2019-01-03T12:53:50.300Z,11.50
2019-01-03T12:56:31.657Z,9.83
2019-01-03T12:59:12.891Z,10.67
2019-01-03T13:01:54.455Z,11.93
2019-01-03T13:04:35.892Z,10.60
2019-01-03T13:07:16.687Z,8.37
2019-01-03T13:09:57.970Z,9.13
2019-01-03T13:12:39.388Z,8.93
2019-01-03T13:15:21.077Z,10.60
2019-01-03T13:18:00.829Z,9.67
2019-01-03T13:20:49.382Z,8.77
2019-01-03T13:23:31.016Z,9.23
2019-01-03T13:26:11.863Z,7.83
2019-01-03T13:28:52.734Z,7.70
2019-01-03T13:31:33.816Z,7.70
2019-01-03T13:34:15.663Z,7.00
2019-01-03T13:36:57.016Z,7.90
2019-01-03T13:39:38.496Z,8.90
2019-01-03T13:42:19.934Z,9.77
2019-01-03T13:45:00.747Z,9.77
2019-01-03T13:47:41.625Z,10.77
2019-01-03T13:50:22.379Z,10.83
2019-01-03T13:53:03.448Z,8.80
2019-01-03T13:55:44.652Z,10.20
2019-01-03T13:58:25.766Z,8.93
2019-01-03T14:01:07.001Z,10.37
2019-01-03T14:03:48.417Z,12.27
2019-01-03T14:06:28.319Z,11.53
2019-01-03T14:12:09.292Z,10.23
2019-01-03T14:14:49.960Z,12.63
2019-01-03T14:17:30.629Z,15.07
2019-01-03T14:20:12.282Z,13.43
2019-01-03T14:22:54.107Z,16.93
2019-01-03T14:25:34.926Z,12.83
2019-01-03T14:28:16.175Z,11.40
2019-01-03T14:30:57.961Z,12.40
2019-01-03T14:33:39.304Z,14.13
2019-01-03T14:36:20.447Z,11.70
2019-01-03T14:39:01.019Z,12.57
2019-01-03T14:41:42.058Z,12.73
2019-01-03T14:44:23.219Z,12.53
2019-01-03T14:47:04.637Z,11.43
2019-01-03T14:49:44.327Z,8.97
2019-01-03T14:52:25.996Z,6.63
2019-01-03T14:55:08.263Z,7.43
2019-01-03T14:57:48.086Z,7.50
2019-01-03T15:00:29.540Z,9.40
2019-01-03T15:03:11.179Z,11.30
2019-01-03T15:05:52.801Z,13.57
2019-01-03T15:08:34.047Z,13.60
2019-01-03T15:11:14.910Z,16.50
2019-01-03T15:13:56.579Z,17.67
2019-01-03T15:16:38.639Z,15.60
2019-01-03T15:19:19.739Z,17.03
2019-01-03T15:22:00.819Z,16.13
2019-01-03T15:24:42.870Z,16.57
2019-01-03T15:27:23.874Z,17.37
2019-01-03T15:30:04.786Z,18.17
2019-01-03T15:32:46.046Z,17.33
2019-01-03T15:35:26.692Z,16.80
2019-01-03T15:38:08.043Z,18.57
2019-01-03T15:40:49.193Z,18.30
2019-01-03T15:43:30.594Z,18.70
2019-01-03T15:46:12.467Z,17.13
2019-01-03T15:48:53.557Z,14.33
2019-01-03T15:51:34.416Z,13.57
2019-01-03T15:54:16.019Z,13.07
2019-01-03T15:56:57.557Z,14.00
2019-01-03T15:59:38.142Z,13.77
2019-01-03T16:02:19.148Z,11.20
2019-01-03T16:07:38.057Z,14.73
2019-01-03T16:10:19.764Z,12.87
2019-01-03T16:12:59.502Z,13.47
2019-01-03T16:15:48.151Z,11.07
2019-01-03T16:18:29.424Z,11.70
2019-01-03T16:21:10.564Z,11.57
2019-01-03T16:23:51.417Z,11.60
2019-01-03T16:26:32.094Z,10.60
2019-01-03T16:29:13.923Z,9.50
2019-01-03T16:31:55.106Z,6.83
2019-01-03T16:34:36.013Z,6.80
2019-01-03T16:37:16.798Z,8.83
2019-01-03T16:39:57.935Z,10.33
2019-01-03T16:42:39.524Z,12.03
2019-01-03T16:45:21.341Z,11.63
2019-01-03T16:48:02.298Z,12.00
2019-01-03T16:50:42.071Z,12.53
2019-01-03T16:53:30.929Z,11.90
2019-01-03T16:56:12.264Z,10.00
2019-01-03T16:58:53.797Z,12.60
2019-01-03T17:01:35.104Z,11.83
2019-01-03T17:04:16.496Z,13.33
2019-01-03T17:06:58.254Z,14.50
2019-01-03T17:09:39.834Z,16.17
2019-01-03T17:12:21.571Z,16.70
2019-01-03T17:15:02.985Z,16.47
2019-01-03T17:17:44.410Z,19.93
2019-01-03T17:20:25.188Z,19.77
2019-01-03T17:23:06.245Z,19.50
2019-01-03T17:25:47.104Z,16.70
2019-01-03T17:28:27.934Z,19.33
2019-01-03T17:31:09.574Z,18.77
2019-01-03T17:33:50.422Z,18.00
2019-01-03T17:36:31.316Z,18.60
2019-01-03T17:39:12.116Z,18.40
2019-01-03T17:41:53.846Z,18.13
2019-01-03T17:44:34.504Z,19.27
2019-01-03T17:47:15.873Z,16.50
2019-01-03T17:49:56.864Z,17.60
2019-01-03T17:52:38.494Z,18.33
2019-01-03T17:55:19.591Z,16.03
2019-01-03T17:58:01.132Z,17.20
2019-01-03T18:00:42.705Z,17.13
2019-01-03T18:03:23.886Z,16.33
2019-01-03T18:06:05.287Z,16.30
2019-01-03T18:08:46.786Z,15.80
2019-01-03T18:11:28.374Z,15.70
2019-01-03T18:14:09.111Z,15.97
2019-01-03T18:16:50.371Z,18.90
2019-01-03T18:19:31.289Z,18.23
2019-01-03T18:22:13.079Z,18.53
2019-01-03T18:24:54.333Z,16.83
2019-01-03T18:27:35.137Z,16.53
2019-01-03T18:30:16.701Z,16.90
2019-01-03T18:32:58.465Z,16.20
2019-01-03T18:35:39.952Z,16.73
2019-01-03T18:38:21.577Z,17.67
2019-01-03T18:41:02.958Z,19.67
2019-01-03T18:43:43.803Z,20.03
2019-01-03T18:46:23.242Z,18.93
2019-01-03T18:52:04.794Z,19.00
2019-01-03T18:54:46.476Z,21.43
2019-01-03T18:57:27.951Z,22.33
2019-01-03T19:00:09.090Z,20.53
2019-01-03T19:02:49.907Z,20.70
2019-01-03T19:05:31.030Z,20.43
2019-01-03T19:08:12.893Z,20.10
2019-01-03T19:10:53.946Z,20.13
2019-01-03T19:13:35.855Z,18.07
2019-01-03T19:16:15.268Z,19.70
2019-01-03T19:18:56.462Z,17.50
2019-01-03T19:21:37.811Z,18.90
2019-01-03T19:24:18.381Z,15.63
2019-01-03T19:27:00.240Z,16.83
2019-01-03T19:29:40.107Z,14.77
2019-01-03T19:32:21.507Z,15.40
2019-01-03T19:35:03.088Z,15.77
2019-01-03T19:37:44.556Z,15.97
2019-01-03T19:40:25.747Z,16.07
2019-01-03T19:43:06.835Z,15.37
2019-01-03T19:45:48.188Z,15.27
2019-01-03T19:48:29.977Z,16.47
2019-01-03T19:51:10.022Z,16.10
2019-01-03T19:53:50.766Z,16.30
2019-01-03T19:56:31.650Z,18.30
2019-01-03T19:59:12.735Z,17.47
2019-01-03T20:01:54.094Z,17.33
2019-01-03T20:04:35.934Z,17.83
2019-01-03T20:07:17.507Z,19.73
2019-01-03T20:09:58.878Z,18.07
2019-01-03T20:12:39.744Z,19.77
2019-01-03T20:15:21.424Z,21.40
2019-01-03T20:18:02.480Z,18.83
2019-01-03T20:20:44.544Z,18.63
2019-01-03T20:23:25.855Z,19.33
2019-01-03T20:26:07.491Z,18.27
2019-01-03T20:28:49.011Z,19.90
2019-01-03T20:31:30.497Z,19.47
2019-01-03T20:34:12.120Z,18.43
2019-01-03T20:36:53.106Z,16.53
2019-01-03T20:39:34.723Z,16.53
2019-01-03T20:42:16.304Z,16.27
2019-01-03T20:44:57.541Z,15.67
2019-01-03T20:47:38.590Z,17.83
2019-01-03T20:50:19.424Z,24.67
2019-01-03T20:53:01.372Z,19.47
2019-01-03T20:55:42.435Z,21.57
2019-01-03T20:58:23.566Z,25.13
2019-01-03T21:01:05.434Z,25.40
2019-01-03T21:03:47.134Z,24.50
2019-01-03T21:06:28.253Z,22.40
2019-01-03T21:09:07.987Z,20.87
2019-01-03T21:11:56.857Z,21.53
2019-01-03T21:14:38.571Z,19.07
2019-01-03T21:17:19.932Z,18.63
2019-01-03T21:20:01.636Z,17.10
2019-01-03T21:22:42.037Z,14.93
2019-01-03T21:25:30.532Z,16.67
2019-01-03T21:28:11.891Z,15.20
2019-01-03T21:30:53.762Z,15.73
2019-01-03T21:33:35.716Z,14.67
2019-01-03T21:36:17.033Z,10.90
2019-01-03T21:38:58.520Z,12.10
2019-01-03T21:41:39.331Z,10.70
2019-01-03T21:44:21.214Z,10.27
2019-01-03T21:47:02.573Z,10.63
2019-01-03T21:49:44.081Z,10.50
2019-01-03T21:52:25.394Z,11.97
2019-01-03T21:55:05.207Z,12.03
2019-01-03T21:57:54.006Z,10.80
2019-01-03T22:00:35.658Z,11.93
2019-01-03T22:03:17.498Z,11.43
2019-01-03T22:05:59.059Z,12.17
2019-01-03T22:08:39.878Z,13.07
2019-01-03T22:11:19.567Z,14.73
2019-01-03T22:14:08.278Z,11.67
2019-01-03T22:16:50.797Z,11.73
2019-01-03T22:19:30.527Z,11.67
2019-01-03T22:22:12.368Z,10.63
2019-01-03T22:24:54.247Z,10.73
2019-01-03T22:27:35.254Z,8.03
2019-01-03T22:30:16.783Z,8.27
2019-01-03T22:32:56.202Z,10.07
2019-01-03T22:35:37.620Z,9.80
2019-01-03T22:38:19.504Z,10.87
2019-01-03T22:41:00.366Z,9.50
2019-01-03T22:43:39.833Z,9.80
2019-01-03T22:46:20.841Z,11.17
2019-01-03T22:49:01.358Z,10.93
2019-01-03T22:51:41.524Z,12.93
2019-01-03T22:54:30.370Z,13.60
2019-01-03T22:57:11.705Z,14.73
2019-01-03T22:59:53.476Z,14.57
2019-01-03T23:02:35.086Z,13.87
2019-01-03T23:05:16.440Z,12.10
2019-01-03T23:07:58.188Z,11.83
2019-01-03T23:10:37.764Z,12.13
2019-01-03T23:13:19.680Z,12.53
2019-01-03T23:16:00.592Z,10.37
2019-01-03T23:18:41.998Z,10.40
2019-01-03T23:21:22.622Z,11.93
2019-01-03T23:24:02.199Z,12.17
2019-01-03T23:26:51.107Z,11.80
2019-01-03T23:29:32.504Z,12.77
2019-01-03T23:32:13.690Z,13.37
2019-01-03T23:34:54.737Z,12.07
2019-01-03T23:37:35.455Z,12.97
2019-01-03T23:40:17.132Z,11.70
2019-01-03T23:42:58.023Z,11.97
2019-01-03T23:45:39.880Z,12.17
2019-01-03T23:48:21.105Z,11.17
2019-01-03T23:51:02.146Z,12.40
2019-01-03T23:53:44.020Z,11.50
2019-01-03T23:56:25.116Z,12.33
2019-01-03T23:59:04.978Z,12.33
